Meteo Giornale » Osservazioni meteo Iran » Gach Saran Du Gunbadan
ore: 16:30 - Osservazioni Meteo Gach Saran Du Gunbadan
Lat. 30° 26' N Lon. 50° 46' E Alt. 738 metri s.l.m.
38 °C
Sereno
Temp. 24 Ore
26 °C
42 °C
Ovest/Nord-Ovest
22.2 Km/h
Dew point 0 °C
Umidità 9 %
Visibilità 10 Km
Il sole sorge alle ore 05:43
Il sole tramonta alle ore 18:30
| Data e Ora | Cielo e Fenomeni | T °C | DP °C | Um. % | Pres. hPa | Vis. km | Vento km/h | |
|---|---|---|---|---|---|---|---|---|
| Oggi h: 16:30 | Sereno | 38 | 0 | 9 | 1008 | 10 | O/NO 22.2 | |
| Oggi h: 15:30 | Sereno | 39 | 1 | 9 | 1008 | 10 | O/NO 25.9 | |
| Oggi h: 14:30 | Sereno | 39 | -1 | 8 | 1009 | 10 | NO 25.9 | |
| Oggi h: 13:30 | Sereno | 40 | -1 | 7 | 1009 | 10 | O/NO 22.2 | |
| Oggi h: 12:30 | Sereno | 40 | -3 | 6 | 1009 | 10 | O/NO 22.2 | |
| Oggi h: 11:30 | Sereno | 38 | 1 | 9 | 1009 | 10 | O 25.9 | |
| Oggi h: 10:30 | Sereno | 37 | 2 | 11 | 1010 | 10 | O 25.9 | |
| Oggi h: 09:30 | Sereno | 37 | 7 | 15 | 1010 | 10 | O 7.4 | |
| Oggi h: 08:30 | Sereno | 34 | 6 | 17 | 1009 | 10 | N 0 | |
| Oggi h: 07:30 | Sereno | 31 | 8 | 23 | 1009 | 10 | N 0 | |
| Oggi h: 06:30 | Sereno | 26 | 5 | 25 | 1009 | 10 | N 0 | |
| Oggi h: 05:30 | Sereno | 28 | 5 | 23 | 1008 | 10 | N 0 | |
| Oggi h: 04:30 | Sereno | 30 | 4 | 19 | 1007 | 10 | N 0 | |
| Oggi h: 03:30 | Sereno | 31 | 4 | 18 | 1007 | 10 | N 0 | |
| Oggi h: 02:30 | Sereno | 33 | 4 | 16 | 1007 | 10 | O 7.4 | |
| Oggi h: 01:30 | Sereno | 33 | 4 | 16 | 1007 | 10 | O 7.4 | |
| Oggi h: 00:30 | Sereno | 36 | 4 | 13 | 1007 | 10 | O/NO 13 | |
| Ieri h: 23:30 | Sereno | 36 | 5 | 14 | 1007 | 10 | O/NO 14.8 | |
| Ieri h: 22:30 | Sereno | 38 | 4 | 12 | 1007 | 10 | NO 18.5 | |
| Ieri h: 21:30 | Sereno | 38 | 5 | 13 | 1007 | 10 | NO 18.5 | |
| Ieri h: 20:30 | Sereno | 38 | 4 | 12 | 1007 | 10 | NO 18.5 | |
| Ieri h: 19:30 | Sereno | 38 | 6 | 14 | 1007 | 10 | O/NO 22.2 | |
| Ieri h: 18:30 | Sereno | 40 | 5 | 11 | 1006 | 10 | O/NO 24 | |
| Ieri h: 17:30 | Poco Nuvoloso | 42 | 7 | 12 | 1006 | 10 | O/NO 25.9 | |



